GCRR

Lanzarote Airport

Lanzarote Island, Spain
METAR GCRR 190700Z 02010KT 9999 FEW025 BKN045 17/13 Q1022
Observed Flight Rules
Jan-19 @ 07:00 UTC (24 minutes ago) Visual Flight Rules
Wind Visibility Clouds
20° at 10 knots 10,000+ meters
  • Few at 2,500' AGL
  • Broken at 4,500' AGL
Temperatures Readings
Current 17°C / 63°F
Dewpoint 13°C / 55°F
Humidity 77%
Altimeter 30.18" Hg
Pressure 1022 hPa
Elevation 40
METAR GCRR 190700Z 02010KT 9999 FEW025 BKN045 17/13 Q1022
Observed Flight Rules
Jan-19 @ 07:00 UTC
(24 minutes ago)
VFR
Wind Visibility
20° at 10 knots 10,000+ meters
Clouds
  • Few at 2,500' AGL
  • Broken at 4,500' AGL
Temperature Dewpoint
17°C / 63°F 13°C / 55°F
Humidity Altimeter Pressure
77% 30.18" Hg 1022 hPa